Rushville, Nebraska
Current Conditions -  °F | °C
As of 8:52 PM on Sunday 23 Nov 2014 (Local Time) from KIEN Reporting Station
Overcast Overcast  
Wind Chill: -3°   Ceiling: 8000
Heat Index:   Visibility: 10mi
Dew Point: -5°   Wind: 13mph
Humidity: 61%   Direction: 270°W
Pressure: 29.74"   Gusts: NA
Location:  42.72°N, 102.46°W
Report Text: KIEN 240352Z AUTO 27011KT 10SM BKN080 OVC095 02/M05 A2974 RMK AO2 SLP088 T00171050
Loading
Personal Weather Stations






























Interactive Weather Map New forecast layout! Learn more

10-Day Weather Forecast

Advertisements
Track Severe Weather on mobile